DAL1499 KORD-KATL
Flight info
| Callsign | DAL1499 |
|---|---|
| Flight time | N/A |
| Altitude | 38000 |
| Route | DCT CMSKY DCT CARYN DCT CYBIL DCT PXV/N0459F370 DCT HITMN DCT NEWBB DCT IHAVE DCT MTHEW CHPPR1 |
| Aircraft | B739/M-S/U |
Departure
| Time | 2026-05-06 22:09 |
|---|---|
| Airport | Chicago O'Hare International Airport (KORD) |
Arrival
| Time | N/A |
|---|---|
| Airport | Hartsfield Jackson Atlanta International Airport (KATL) |
| Time | Latitude | Longitude | Altitude | Speed | Heading |
|---|---|---|---|---|---|
| 2026-05-06 21:49 | 41.97655 | -87.89781 | 659 ft | 0 kts | 356° |
| 2026-05-06 21:59 | 41.97641 | -87.89779 | 651 ft | 3 kts | 356° |
| 2026-05-06 21:59 | 41.97621 | -87.89777 | 659 ft | 3 kts | 356° |
| 2026-05-06 21:59 | 41.97601 | -87.89775 | 659 ft | 3 kts | 356° |
| 2026-05-06 22:00 | 41.97593 | -87.89775 | 659 ft | 0 kts | 356° |
| 2026-05-06 22:03 | 41.97599 | -87.89746 | 658 ft | 9 kts | 104° |
| 2026-05-06 22:03 | 41.97571 | -87.89650 | 657 ft | 12 kts | 110° |
| 2026-05-06 22:04 | 41.97543 | -87.89548 | 657 ft | 11 kts | 118° |
| 2026-05-06 22:04 | 41.97504 | -87.89511 | 657 ft | 10 kts | 148° |
| 2026-05-06 22:04 | 41.97434 | -87.89433 | 658 ft | 14 kts | 174° |
| 2026-05-06 22:04 | 41.97367 | -87.89431 | 659 ft | 14 kts | 177° |
| 2026-05-06 22:05 | 41.97238 | -87.89434 | 663 ft | 14 kts | 181° |
| 2026-05-06 22:05 | 41.97197 | -87.89384 | 665 ft | 13 kts | 99° |
| 2026-05-06 22:05 | 41.97196 | -87.89251 | 662 ft | 16 kts | 89° |
| 2026-05-06 22:05 | 41.97197 | -87.89082 | 658 ft | 20 kts | 90° |
| 2026-05-06 22:06 | 41.97196 | -87.88898 | 658 ft | 19 kts | 89° |
| 2026-05-06 22:06 | 41.97197 | -87.88719 | 657 ft | 19 kts | 90° |
| 2026-05-06 22:06 | 41.97197 | -87.88546 | 657 ft | 18 kts | 90° |
| 2026-05-06 22:06 | 41.97196 | -87.88431 | 659 ft | 12 kts | 90° |
| 2026-05-06 22:07 | 41.97196 | -87.88321 | 660 ft | 12 kts | 90° |
| 2026-05-06 22:07 | 41.97197 | -87.88216 | 659 ft | 11 kts | 89° |
| 2026-05-06 22:07 | 41.97197 | -87.88111 | 659 ft | 11 kts | 89° |
| 2026-05-06 22:07 | 41.97153 | -87.88036 | 660 ft | 11 kts | 173° |
| 2026-05-06 22:08 | 41.97075 | -87.88033 | 662 ft | 11 kts | 179° |
| 2026-05-06 22:08 | 41.97007 | -87.88027 | 664 ft | 8 kts | 162° |
| 2026-05-06 22:08 | 41.96975 | -87.88008 | 664 ft | 4 kts | 181° |
| 2026-05-06 22:08 | 41.96943 | -87.88037 | 665 ft | 13 kts | 223° |
| 2026-05-06 22:09 | 41.96654 | -87.88379 | 660 ft | 98 kts | 220° |
| 2026-05-06 22:09 | 41.95956 | -87.89202 | 672 ft | 166 kts | 221° |
| 2026-05-06 22:09 | 41.95001 | -87.90269 | 1310 ft | 183 kts | 223° |
| 2026-05-06 22:09 | 41.94001 | -87.91381 | 2270 ft | 193 kts | 222° |
| 2026-05-06 22:10 | 41.92652 | -87.92087 | 2658 ft | 235 kts | 186° |
| 2026-05-06 22:10 | 41.90943 | -87.91654 | 2971 ft | 263 kts | 167° |
| 2026-05-06 22:10 | 41.89139 | -87.91015 | 3612 ft | 270 kts | 170° |
| 2026-05-06 22:10 | 41.87293 | -87.90509 | 4423 ft | 272 kts | 174° |
| 2026-05-06 22:11 | 41.85423 | -87.90125 | 5406 ft | 272 kts | 176° |
| 2026-05-06 22:11 | 41.83536 | -87.89835 | 6353 ft | 274 kts | 178° |
| 2026-05-06 22:11 | 41.81637 | -87.89614 | 7219 ft | 276 kts | 180° |
| 2026-05-06 22:11 | 41.79711 | -87.89439 | 8089 ft | 278 kts | 181° |
| 2026-05-06 22:12 | 41.77775 | -87.89297 | 9009 ft | 280 kts | 181° |
| 2026-05-06 22:12 | 41.75814 | -87.89175 | 9894 ft | 282 kts | 182° |
| 2026-05-06 22:12 | 41.73849 | -87.89070 | 10481 ft | 294 kts | 183° |
| 2026-05-06 22:12 | 41.71713 | -87.88974 | 10675 ft | 319 kts | 183° |
| 2026-05-06 22:13 | 41.69410 | -87.88877 | 10880 ft | 343 kts | 183° |
| 2026-05-06 22:13 | 41.67019 | -87.88778 | 11260 ft | 357 kts | 183° |
| 2026-05-06 22:13 | 41.64629 | -87.88674 | 11952 ft | 361 kts | 184° |
| 2026-05-06 22:13 | 41.62104 | -87.88563 | 12801 ft | 363 kts | 185° |
| 2026-05-06 22:14 | 41.59570 | -87.88453 | 13590 ft | 366 kts | 186° |
| 2026-05-06 22:14 | 41.57008 | -87.88346 | 14268 ft | 370 kts | 186° |
| 2026-05-06 22:14 | 41.54446 | -87.88240 | 14888 ft | 373 kts | 186° |
| 2026-05-06 22:14 | 41.51801 | -87.88132 | 15491 ft | 378 kts | 186° |
| 2026-05-06 22:15 | 41.49191 | -87.88024 | 16126 ft | 381 kts | 187° |
| 2026-05-06 22:15 | 41.46524 | -87.87915 | 16766 ft | 384 kts | 187° |
| 2026-05-06 22:15 | 41.43837 | -87.87805 | 17389 ft | 388 kts | 187° |
| 2026-05-06 22:15 | 41.41126 | -87.87705 | 18001 ft | 390 kts | 188° |
| 2026-05-06 22:16 | 41.38417 | -87.87836 | 18561 ft | 389 kts | 193° |
| 2026-05-06 22:16 | 41.35717 | -87.88139 | 19138 ft | 389 kts | 194° |
| 2026-05-06 22:16 | 41.33005 | -87.88472 | 19736 ft | 391 kts | 194° |
| 2026-05-06 22:16 | 41.30281 | -87.88780 | 20290 ft | 393 kts | 193° |
| 2026-05-06 22:17 | 41.27580 | -87.89054 | 20849 ft | 396 kts | 193° |
| 2026-05-06 22:17 | 41.24783 | -87.89314 | 21394 ft | 400 kts | 192° |
| 2026-05-06 22:17 | 41.22008 | -87.89373 | 21909 ft | 407 kts | 188° |
| 2026-05-06 22:17 | 41.19164 | -87.89290 | 22442 ft | 411 kts | 188° |
| 2026-05-06 22:18 | 41.16300 | -87.89157 | 22971 ft | 414 kts | 187° |
| 2026-05-06 22:18 | 41.13407 | -87.89016 | 23491 ft | 416 kts | 188° |
| 2026-05-06 22:18 | 41.10509 | -87.88886 | 23915 ft | 418 kts | 189° |
| 2026-05-06 22:18 | 41.07598 | -87.88768 | 24489 ft | 415 kts | 190° |
| 2026-05-06 22:19 | 41.04715 | -87.88660 | 25019 ft | 414 kts | 191° |
| 2026-05-06 22:19 | 41.01827 | -87.88562 | 25464 ft | 415 kts | 191° |
| 2026-05-06 22:19 | 40.98934 | -87.88470 | 25892 ft | 417 kts | 192° |
| 2026-05-06 22:19 | 40.96032 | -87.88381 | 26324 ft | 418 kts | 192° |
| 2026-05-06 22:20 | 40.93163 | -87.88292 | 26833 ft | 416 kts | 193° |
| 2026-05-06 22:20 | 40.90285 | -87.88197 | 27507 ft | 411 kts | 193° |
| 2026-05-06 22:20 | 40.87457 | -87.88098 | 28261 ft | 402 kts | 195° |
| 2026-05-06 22:20 | 40.84694 | -87.87997 | 29136 ft | 393 kts | 196° |
| 2026-05-06 22:21 | 40.81969 | -87.87907 | 29782 ft | 390 kts | 197° |
| 2026-05-06 22:21 | 40.79257 | -87.87827 | 30266 ft | 389 kts | 197° |
| 2026-05-06 22:21 | 40.76555 | -87.87752 | 30683 ft | 388 kts | 197° |
| 2026-05-06 22:21 | 40.73860 | -87.87674 | 31126 ft | 386 kts | 197° |
| 2026-05-06 22:22 | 40.71170 | -87.87593 | 31587 ft | 384 kts | 198° |
| 2026-05-06 22:22 | 40.68501 | -87.87511 | 32023 ft | 382 kts | 198° |
| 2026-05-06 22:22 | 40.65841 | -87.87430 | 32428 ft | 381 kts | 198° |
| 2026-05-06 22:22 | 40.63227 | -87.87350 | 32831 ft | 380 kts | 198° |
| 2026-05-06 22:23 | 40.60586 | -87.87269 | 33256 ft | 378 kts | 198° |
| 2026-05-06 22:23 | 40.57960 | -87.87188 | 33656 ft | 377 kts | 198° |
| 2026-05-06 22:23 | 40.55337 | -87.87108 | 34034 ft | 376 kts | 199° |
| 2026-05-06 22:23 | 40.52725 | -87.87029 | 34325 ft | 376 kts | 198° |
| 2026-05-06 22:24 | 40.50107 | -87.86953 | 34526 ft | 378 kts | 198° |
| 2026-05-06 22:24 | 40.47472 | -87.86877 | 34731 ft | 380 kts | 198° |
| 2026-05-06 22:24 | 40.44830 | -87.86797 | 34947 ft | 379 kts | 198° |
| 2026-05-06 22:24 | 40.42201 | -87.86712 | 35312 ft | 377 kts | 198° |
| 2026-05-06 22:25 | 40.39574 | -87.86633 | 35523 ft | 378 kts | 198° |
| 2026-05-06 22:25 | 40.36928 | -87.86557 | 35687 ft | 381 kts | 198° |
| 2026-05-06 22:25 | 40.34279 | -87.86477 | 35921 ft | 381 kts | 197° |
| 2026-05-06 22:25 | 40.31627 | -87.86393 | 36167 ft | 381 kts | 197° |
| 2026-05-06 22:26 | 40.28973 | -87.86293 | 36359 ft | 383 kts | 197° |
| 2026-05-06 22:26 | 40.26295 | -87.86176 | 36553 ft | 385 kts | 196° |
| 2026-05-06 22:26 | 40.23614 | -87.86051 | 36771 ft | 385 kts | 196° |
| 2026-05-06 22:26 | 40.20975 | -87.85925 | 36985 ft | 384 kts | 197° |
| 2026-05-06 22:27 | 40.18308 | -87.85798 | 37204 ft | 384 kts | 197° |
| 2026-05-06 22:27 | 40.15630 | -87.85679 | 37347 ft | 385 kts | 197° |
| 2026-05-06 22:27 | 40.12945 | -87.85559 | 37565 ft | 385 kts | 197° |
| 2026-05-06 22:27 | 40.10266 | -87.85440 | 37771 ft | 385 kts | 197° |
| 2026-05-06 22:28 | 40.07593 | -87.85323 | 37924 ft | 386 kts | 197° |
| 2026-05-06 22:28 | 40.04898 | -87.85206 | 38026 ft | 387 kts | 197° |
| 2026-05-06 22:28 | 39.99497 | -87.84971 | 37994 ft | 387 kts | 197° |
| 2026-05-06 22:29 | 39.94148 | -87.84726 | 38031 ft | 383 kts | 197° |
| 2026-05-06 22:29 | 39.88834 | -87.84490 | 38039 ft | 380 kts | 197° |
| 2026-05-06 22:30 | 39.83556 | -87.84261 | 38053 ft | 378 kts | 197° |
| 2026-05-06 22:30 | 39.78326 | -87.84038 | 37977 ft | 378 kts | 198° |
| 2026-05-06 22:31 | 39.73071 | -87.83811 | 38041 ft | 378 kts | 198° |
| 2026-05-06 22:31 | 39.67801 | -87.83587 | 38055 ft | 379 kts | 198° |
| 2026-05-06 22:32 | 39.62501 | -87.83362 | 38059 ft | 382 kts | 198° |
| 2026-05-06 22:32 | 39.57175 | -87.83134 | 38056 ft | 384 kts | 198° |
| 2026-05-06 22:33 | 39.51822 | -87.82901 | 38051 ft | 385 kts | 198° |
| 2026-05-06 22:33 | 39.46490 | -87.82668 | 38049 ft | 385 kts | 198° |
| 2026-05-06 22:34 | 39.41127 | -87.82435 | 38044 ft | 385 kts | 198° |
| 2026-05-06 22:34 | 39.35790 | -87.82204 | 38043 ft | 385 kts | 198° |
| 2026-05-06 22:35 | 39.30448 | -87.81971 | 38009 ft | 383 kts | 198° |
| 2026-05-06 22:35 | 39.25133 | -87.81740 | 38035 ft | 380 kts | 198° |
| 2026-05-06 22:36 | 39.19849 | -87.81514 | 38039 ft | 379 kts | 199° |
| 2026-05-06 22:36 | 39.14588 | -87.81291 | 38043 ft | 377 kts | 199° |
| 2026-05-06 22:37 | 39.09343 | -87.81068 | 37992 ft | 376 kts | 199° |
| 2026-05-06 22:37 | 39.04157 | -87.80846 | 38034 ft | 375 kts | 199° |
| 2026-05-06 22:38 | 38.98951 | -87.80628 | 38041 ft | 374 kts | 199° |
| 2026-05-06 22:38 | 38.93740 | -87.80409 | 38047 ft | 375 kts | 199° |
| 2026-05-06 22:39 | 38.88511 | -87.80189 | 38050 ft | 376 kts | 199° |
| 2026-05-06 22:39 | 38.83299 | -87.79969 | 38030 ft | 375 kts | 199° |
| 2026-05-06 22:40 | 38.78061 | -87.79748 | 38045 ft | 377 kts | 199° |
| 2026-05-06 22:40 | 38.72804 | -87.79529 | 38047 ft | 379 kts | 199° |
| 2026-05-06 22:41 | 38.64849 | -87.79196 | 38057 ft | 382 kts | 198° |
| 2026-05-06 22:42 | 38.59561 | -87.78969 | 38052 ft | 381 kts | 198° |
| 2026-05-06 22:42 | 38.54253 | -87.78743 | 38064 ft | 381 kts | 199° |
| 2026-05-06 22:43 | 38.48949 | -87.78521 | 38057 ft | 381 kts | 199° |
| 2026-05-06 22:43 | 38.43635 | -87.78298 | 38051 ft | 380 kts | 199° |
| 2026-05-06 22:44 | 38.38343 | -87.78075 | 38046 ft | 379 kts | 199° |
| 2026-05-06 22:44 | 38.33103 | -87.77857 | 38047 ft | 378 kts | 199° |
| 2026-05-06 22:45 | 38.27800 | -87.77646 | 38051 ft | 385 kts | 198° |
| 2026-05-06 22:45 | 38.22386 | -87.77430 | 38058 ft | 391 kts | 198° |
| 2026-05-06 22:46 | 38.16894 | -87.77203 | 37988 ft | 398 kts | 198° |
| 2026-05-06 22:46 | 38.11350 | -87.76966 | 38041 ft | 400 kts | 198° |
| 2026-05-06 22:47 | 38.05798 | -87.76734 | 38056 ft | 402 kts | 198° |
| 2026-05-06 22:47 | 38.00191 | -87.76501 | 38042 ft | 403 kts | 197° |
| 2026-05-06 22:48 | 37.94537 | -87.76063 | 38045 ft | 422 kts | 189° |
| 2026-05-06 22:48 | 37.91609 | -87.75211 | 38028 ft | 440 kts | 182° |
| 2026-05-06 22:48 | 37.88675 | -87.73823 | 38048 ft | 462 kts | 174° |
| 2026-05-06 22:49 | 37.83831 | -87.70851 | 38009 ft | 466 kts | 172° |
| 2026-05-06 22:49 | 37.77089 | -87.66571 | 38045 ft | 465 kts | 172° |
| 2026-05-06 22:50 | 37.72265 | -87.63554 | 38057 ft | 464 kts | 173° |
| 2026-05-06 22:50 | 37.65483 | -87.59381 | 38049 ft | 463 kts | 173° |
| 2026-05-06 22:51 | 37.60654 | -87.56432 | 38050 ft | 465 kts | 173° |
| 2026-05-06 22:51 | 37.54814 | -87.52872 | 38041 ft | 467 kts | 173° |
| 2026-05-06 22:52 | 37.48940 | -87.49293 | 38040 ft | 469 kts | 173° |
| 2026-05-06 22:52 | 37.43049 | -87.45706 | 37978 ft | 471 kts | 172° |
| 2026-05-06 22:53 | 37.37137 | -87.42110 | 38021 ft | 472 kts | 172° |
| 2026-05-06 22:53 | 37.31243 | -87.38533 | 38033 ft | 473 kts | 172° |
| 2026-05-06 22:54 | 37.25302 | -87.34936 | 38030 ft | 475 kts | 172° |
| 2026-05-06 22:54 | 37.19344 | -87.31333 | 37945 ft | 475 kts | 172° |
| 2026-05-06 22:55 | 37.13480 | -87.27789 | 38017 ft | 474 kts | 172° |
| 2026-05-06 22:55 | 37.07525 | -87.24201 | 38021 ft | 474 kts | 172° |
| 2026-05-06 22:56 | 37.01573 | -87.20625 | 38022 ft | 475 kts | 172° |
| 2026-05-06 22:56 | 36.95601 | -87.17040 | 37924 ft | 476 kts | 172° |
| 2026-05-06 22:57 | 36.89632 | -87.13459 | 38006 ft | 474 kts | 172° |
| 2026-05-06 22:57 | 36.83681 | -87.09898 | 38004 ft | 474 kts | 172° |
| 2026-05-06 22:58 | 36.77762 | -87.06364 | 38004 ft | 474 kts | 172° |
| 2026-05-06 22:58 | 36.71812 | -87.02817 | 38011 ft | 473 kts | 172° |
| 2026-05-06 22:59 | 36.65910 | -86.99303 | 38019 ft | 472 kts | 172° |
| 2026-05-06 22:59 | 36.59974 | -86.95776 | 38024 ft | 471 kts | 172° |
| 2026-05-06 23:00 | 36.54057 | -86.92268 | 38006 ft | 471 kts | 172° |
| 2026-05-06 23:00 | 36.48123 | -86.88755 | 38009 ft | 471 kts | 172° |
| 2026-05-06 23:01 | 36.42654 | -86.85524 | 38000 ft | 471 kts | 171° |
| 2026-05-06 23:01 | 36.36708 | -86.82017 | 38012 ft | 473 kts | 171° |
| 2026-05-06 23:02 | 36.30743 | -86.78506 | 38026 ft | 475 kts | 171° |
| 2026-05-06 23:02 | 36.24755 | -86.74985 | 38020 ft | 477 kts | 171° |
| 2026-05-06 23:03 | 36.18739 | -86.71452 | 37970 ft | 479 kts | 171° |
| 2026-05-06 23:03 | 36.12761 | -86.67901 | 38018 ft | 484 kts | 168° |
| 2026-05-06 23:04 | 36.06827 | -86.63789 | 38029 ft | 492 kts | 165° |
| 2026-05-06 23:04 | 36.00914 | -86.59510 | 38028 ft | 492 kts | 165° |
| 2026-05-06 23:05 | 35.94988 | -86.55286 | 38001 ft | 491 kts | 166° |
| 2026-05-06 23:05 | 35.89049 | -86.51109 | 37998 ft | 490 kts | 166° |
| 2026-05-06 23:06 | 35.83128 | -86.46962 | 38016 ft | 488 kts | 166° |
| 2026-05-06 23:06 | 35.77220 | -86.42828 | 37994 ft | 488 kts | 166° |
| 2026-05-06 23:07 | 35.71329 | -86.38696 | 37996 ft | 488 kts | 166° |
| 2026-05-06 23:07 | 35.65444 | -86.34496 | 37988 ft | 487 kts | 165° |
| 2026-05-06 23:08 | 35.59610 | -86.30389 | 37986 ft | 487 kts | 165° |
| 2026-05-06 23:08 | 35.53763 | -86.26192 | 37985 ft | 486 kts | 165° |
| 2026-05-06 23:09 | 35.47922 | -86.22113 | 37764 ft | 475 kts | 166° |
| 2026-05-06 23:09 | 35.45047 | -86.20148 | 37219 ft | 470 kts | 166° |
| 2026-05-06 23:09 | 35.42202 | -86.18108 | 36470 ft | 480 kts | 160° |
| 2026-05-06 23:09 | 35.39526 | -86.15632 | 35781 ft | 493 kts | 154° |
| 2026-05-06 23:10 | 35.36885 | -86.12929 | 35099 ft | 495 kts | 153° |
| 2026-05-06 23:10 | 35.34242 | -86.10219 | 34428 ft | 495 kts | 154° |
| 2026-05-06 23:10 | 35.31576 | -86.07554 | 33747 ft | 493 kts | 154° |
| 2026-05-06 23:10 | 35.28901 | -86.04941 | 33271 ft | 487 kts | 155° |
| 2026-05-06 23:11 | 35.26257 | -86.02379 | 32768 ft | 482 kts | 155° |
| 2026-05-06 23:11 | 35.23614 | -85.99844 | 32011 ft | 484 kts | 154° |
| 2026-05-06 23:11 | 35.20952 | -85.97305 | 31114 ft | 488 kts | 154° |